Main page
METAR-TAF:

METAR-TAF

Airports :

King Abdulaziz International Airport

Jeddah, Saudi Arabia

latitude: 21-42N, longitude: 039-11E, elevation: 15 m

Current weather observation

The report was made 22 minutes ago, at 04:00 UTC
Calm wind
Temperature 28°C
Humidity 66%
Pressure 1009 hPa
Visibility 10 km or more
no clouds below 1500 m and no cumulonimbus

METAR: OEJN 170400Z 00000KT CAVOK 28/21 Q1009 NOSIG

Time: 07:22 (04:22 UTC)

Forecast

The report was made 5 hours and 22 minutes ago, at 23:00 UTC
Forecast valid from 17 at 00 UTC to 18 at 06 UTC
Wind 8 kt from the East
Visibility: 7000 m
Scattered clouds at a height of 4000 ft
Becoming
from 17 at 07 UTC to 17 at 09 UTC
Wind 14 kt from the Southwest

TAF: OEJN 162300Z 1700/1806 09008KT 7000 SCT040 BECMG 1707/1709 23014KT

Weather observations and forecasts of more than 4000 airports (METAR and TAF reports).

The available stations are represented by yellow and red dots on the map.

Hover mouse over dot to see the name of the station.

Then click to see weather observations and forecasts.

To change the map : click on the green buttons with a black cross to zoom in, on the green button with a dash to zoom out, or on the green arrows for adjacent maps.


METAR-TAF: